新東京国際空港の過去48時間の天気

新東京国際空港 (Tokyo/New Tokyo Intl)

現在時刻: 10/24 18:24 JST (10/24 09:24 UTC) 以下の時間は現地時間です。

過去48時間のMETAR気象情報
時間 風向 風速(m/s) 視程 気温(℃) 湿度(%) 気圧(hPa) 天気現象
24 18:00 3 10km以上 15 82 1005
24 17:30 東北東 2 10km以上 16 77 1005
24 17:00 3 10km以上 15 82 1004
24 16:30 東北東 3 10km以上 17 72 1004 周辺でしゅう雨
24 16:00 4 10km以上 17 72 1004 弱いしゅう雨
24 15:45 北北東 5 10km以上 18 73 1004 弱いしゅう雨
24 15:30 南西 3 10km以上 17 77 1004 弱いしゅう雨
24 15:00 5 10km以上 18 73 1004 弱いしゅう雨
24 14:30 東北東 3 10km以上 18 77 1004 弱いしゅう雨
24 14:00 4 10km以上 18 73 1004
24 13:30 2 10km以上 19 68 1004
24 13:00 北東 2 10km以上 19 68 1004
24 12:30 北東 2 10km以上 19 68 1005
24 12:00 北東 2 10km以上 18 73 1005
24 11:30 北北東 3 10km以上 18 73 1005
24 11:00 2 10km以上 18 68 1006
24 10:30 3 10km以上 17 72 1006
24 10:00 3 10km以上 17 72 1006
24 09:30 4 10km以上 16 77 1006 周辺でしゅう雨
24 09:00 不定 1 10km以上 15 82 1006 弱いしゅう雨
24 08:30 北西 2 10km以上 15 82 1006 弱いしゅう雨
24 08:00 北西 2 10km以上 15 82 1006
24 07:30 北西 3 10km以上 14 88 1006 周辺でしゅう雨
24 07:00 西北西 3 10km以上 14 82 1005
24 06:30 北西 3 10km以上 14 82 1005
24 06:00 北西 3 10km以上 14 82 1005
24 05:30 北西 2 10km以上 14 82 1005
24 05:00 北西 3 10km以上 15 77 1004
24 04:30 西北西 2 10km以上 15 82 1004
24 04:00 西北西 2 10km以上 15 88 1004 地霧
24 03:30 西 2 10km以上 15 94 1003 地霧
24 03:00 西北西 2 10km以上 15 100 1003
24 02:30 西 2 10km以上 15 100 1003
24 02:00 不定 1 10km以上 16 94 1003
24 01:30 西 2 10km以上 16 94 1002 周辺でしゅう雨
24 01:00 北西 2 10km以上 16 94 1002 周辺でしゅう雨
24 00:30 北西 3 10km以上 17 94 1002 弱いしゅう雨
24 00:00 北北西 2 10km以上 17 94 1001 弱いしゅう雨
23 23:30 4 10km以上 17 94 1001 弱いしゅう雨
23 23:00 北西 2 10km以上 17 100 1001 弱いしゅう雨
23 22:30 北西 2 10km以上 17 100 1001 弱いしゅう雨
23 22:00 北東 2 10km以上 17 100 1001 弱いしゅう雨
23 21:39 4 8000m 17 100 1001 弱いしゅう雨
23 21:16 6 3500m 17 100 1001 弱いしゅう雨 もや
23 21:00 北西 2 2500m 18 100 1001 弱いしゅう雨 もや
23 20:30 不定 1 1400m 18 100 1000 弱いしゅう雨 もや
23 20:14 西北西 2 1400m 18 100 1001 周辺でしゅう雨 もや
23 20:00 西北西 2 1200m 18 100 1000 もや
23 19:41 西北西 2 1500m 18 100 1000 もや
23 19:30 西北西 2 1800m 18 100 1000 弱いしゅう雨 もや
23 19:00 西北西 3 1800m 18 100 1000 弱いしゅう雨 もや
23 18:40 北北西 3 3000m 18 100 1000 弱いしゅう雨 もや
23 18:23 北西 2 3000m 18 100 999 もや
23 18:12 西北西 2 4500m 18 100 1000 もや
23 18:00 西北西 2 7000m 18 100 999
23 17:30 北西 2 10km以上 18 100 999 周辺でしゅう雨
23 17:00 西北西 2 4000m 18 100 999 弱いしゅう雨 もや
23 16:30 2 3500m 18 100 999 しゅう雨 もや
23 16:17 3 3500m 18 100 999 しゅう雨 もや
23 16:00 3 8000m 18 100 999 弱いしゅう雨
23 15:30 北西 4 8000m 18 94 999 弱いしゅう雨
23 15:19 北西 4 8000m 17 100 999 弱いしゅう雨
23 15:00 北西 3 4500m 17 100 999 弱いしゅう雨 もや
23 14:30 西北西 4 3200m 18 94 999 弱いしゅう雨 もや
23 14:10 北北西 4 3500m 18 100 998 弱いしゅう雨 もや
23 14:00 北西 3 5000m 18 100 998 弱いしゅう雨 もや
23 13:30 北北西 3 8000m 19 94 999 弱いしゅう雨
23 13:19 北西 2 5000m 19 94 999 弱いしゅう雨 もや
23 13:00 北西 3 8000m 19 94 999 弱いしゅう雨
23 12:30 北西 3 8000m 19 100 1000
23 12:10 西 2 5000m 20 94 1000 もや
23 12:00 南西 2 4000m 21 100 1000 弱いしゅう雨 もや
23 11:30 不定 1 7000m 21 94 1001 弱いしゅう雨
23 11:00 東南東 2 5000m 20 100 1001 もや
23 10:42 2 4000m 20 100 1001 もや
23 10:30 2 3000m 20 100 1002 弱いしゅう雨 もや
23 10:00 不定 1 2700m 19 100 1002 もや
23 09:30 不定 2 2500m 19 100 1003 もや
23 09:00 不定 1 2000m 18 100 1004 もや
23 08:37 不定 1 1500m 18 100 1004 もや
23 08:30 2 1200m 18 100 1004 もや
23 08:17 2 700m 18 100 1004
23 08:07 不定 1 500m 18 100 1004
23 08:00 不定 1 500m 18 100 1004
23 07:46 1 400m 18 100 1004
23 07:39 不定 1 400m 17 100 1005
23 07:30 不定 1 400m 17 100 1005
23 07:16 北北東 1 300m 17 100 1005
23 07:00 2 100m 17 100 1005
23 06:49 北北東 2 300m 17 100 1005 弱いしゅう雨 霧
23 06:37 2 300m 17 100 1005
23 06:26 2 400m 17 100 1005 弱いしゅう雨 霧
23 06:18 2 400m 17 100 1005 弱いしゅう雨 霧
23 06:00 3 400m 17 100 1005
23 05:30 4 900m 17 100 1006
23 05:00 北北西 3 900m 16 100 1007
23 04:49 北北西 3 1400m 16 100 1007 もや
23 04:30 北北西 3 1800m 16 100 1007 もや
23 04:06 北西 3 2800m 16 100 1007 弱いしゅう雨 もや
23 03:30 北西 3 2800m 16 100 1008 もや
23 03:00 北北西 3 3000m 16 100 1008 もや
23 02:30 北北西 2 4000m 16 100 1009 弱いしゅう雨 もや
23 02:00 北北西 4 5000m 16 100 1009 もや
23 01:30 北北西 3 6000m 16 100 1010
23 01:00 北西 3 6000m 16 100 1010 弱いしゅう雨
23 00:47 北西 3 5000m 16 100 1010 弱いしゅう雨 もや
23 00:30 北西 3 3500m 16 100 1011 しゅう雨 もや
23 00:22 北西 2 3500m 17 94 1011 しゅう雨 もや
23 00:00 北北西 2 4800m 17 94 1011 弱いしゅう雨 もや
22 23:30 北西 3 10km以上 17 94 1011 弱いしゅう雨
22 23:00 北西 2 10km以上 17 94 1012 弱いしゅう雨
22 22:30 北北西 3 10km以上 18 88 1012 弱いしゅう雨
22 22:00 北北西 3 10km以上 18 88 1013 弱いしゅう雨
22 21:30 3 10km以上 18 88 1013
22 21:00 3 10km以上 17 94 1014
22 20:30 3 10km以上 17 94 1014
22 20:00 北北東 3 10km以上 17 94 1015
22 19:30 3 10km以上 18 88 1015
22 19:00 4 10km以上 18 88 1015
22 18:30 3 10km以上 18 88 1015
RJAA 240900Z 08005KT 9999 FEW025 15/12 Q1005 NOSIG RMK 1CU025 A2969
RJAA 240830Z 07004KT 9999 FEW030 16/12 Q1005 NOSIG RMK 1CU030 A2968
RJAA 240800Z 10005KT 080V150 9999 FEW030 15/12 Q1004 NOSIG RMK 2CU030 A2967
RJAA 240730Z 07005KT 9999 VCSH FEW030 SCT040 17/12 Q1004 NOSIG RMK 2CU030 4CU040 A2967
RJAA 240700Z 08007KT 9999 -SHRA FEW030 BKN070 17/12 Q1004 NOSIG RMK 2CU030 5AC070 A2966
RJAA 240645Z 02010KT 9999 -SHRA FEW020 SCT030 BKN070 18/13 Q1004 RMK 2CU020 3CU030 6AC070 A2966
RJAA 240630Z 22005KT 120V300 9999 -SHRA FEW020 SCT030 BKN070 17/13 Q1004 NOSIG RMK 2CU020 3SC030 6AC070 A2966
RJAA 240600Z 08010KT 9999 -SHRA FEW020 SCT030 BKN070 18/13 Q1004 NOSIG RMK 2CU020 3SC030 6AC070 A2965
RJAA 240530Z 07006KT 050V110 9999 -SHRA FEW020 BKN030 18/14 Q1004 NOSIG RMK 2CU020 6SC030 A2965
RJAA 240500Z 08008KT 9999 FEW020 SCT030 BKN040 18/13 Q1004 NOSIG RMK 1CU020 3SC030 5SC040 A2965
RJAA 240430Z 08004KT 030V120 9999 FEW020 SCT030 19/13 Q1004 NOSIG RMK 1CU020 3SC030 A2965
RJAA 240400Z 04003KT 310V110 9999 FEW020 SCT035 BKN070 19/13 Q1004 BECMG 10005KT RMK 1CU020 3SC035 6AC070 A2966
RJAA 240330Z 05003KT 320V130 9999 FEW020 SCT030 BKN040 19/13 Q1005 BECMG 10005KT
RJAA 240300Z 05004KT 350V100 9999 FEW020 BKN050 18/13 Q1005 BECMG 10005KT
RJAA 240230Z 03005KT 340V080 9999 FEW020 BKN035 BKN050 18/13 Q1005 NOSIG RMK 1CU020 5SC035 7SC050 A2970
RJAA 240200Z 36004KT 320V040 9999 FEW020 BKN035 18/12 Q1006 NOSIG RMK 1CU020 7SC035 A2971
RJAA 240130Z 01005KT 320V030 9999 FEW020 BKN080 17/12 Q1006 NOSIG RMK 1CU020 5AC080 A2972
RJAA 240100Z 01006KT 340V040 9999 FEW020 SCT030 BKN040 17/12 Q1006 NOSIG RMK 1CU020 3CU030 7SC040 A2972
RJAA 240030Z 35007KT 9999 VCSH FEW020 BKN035 16/12 Q1006 NOSIG RMK 1CU020 7CU035 A2972
RJAA 240000Z VRB01KT 9999 -SHRA FEW010 BKN030 15/12 Q1006 BECMG 36005KT RMK 1CU010 6CU030 A2973
RJAA 232330Z 31004KT 280V340 9999 -SHRA FEW010 BKN035 BKN070 15/12 Q1006 NOSIG RMK 1CU010 5CU035 6AC070 A2973
RJAA 232300Z 32004KT 250V350 9999 FEW010 BKN035 BKN070 15/12 Q1006 NOSIG RMK 1CU010 5CU035 6AC070 A2972
RJAA 232230Z 32005KT 9999 VCSH FEW010 BKN040 BKN080 14/12 Q1006 NOSIG RMK 1CU010 6CU040 7AC080 A2972
RJAA 232200Z 30006KT 9999 FEW020 BKN035 BKN080 14/11 Q1005 NOSIG RMK 1CU020 5CU035 7AC080 A2970
RJAA 232130Z 32005KT 9999 FEW020 BKN035 BKN080 14/11 Q1005 NOSIG RMK 1CU020 5CU035 7AC080 A2969
RJAA 232100Z 31005KT 9999 FEW020 SCT040 BKN070 14/11 Q1005 NOSIG RMK 1CU020 4CU040 7AC070 A2969
RJAA 232030Z 31004KT 9999 FEW020 SCT040 BKN070 14/11 Q1005 NOSIG RMK 1CU020 3CU040 7AC070 A2968
RJAA 232000Z 31005KT 9999 FEW020 SCT040 BKN070 15/11 Q1004 NOSIG RMK 1CU020 3CU040 6AC070 A2967
RJAA 231930Z 29003KT 260V320 9999 FEW020 SCT040 BKN070 15/12 Q1004 NOSIG RMK 1CU020 4CU040 6AC070 A2966
RJAA 231900Z 30004KT 9999 MIFG FEW020 SCT040 BKN070 15/13 Q1004 NOSIG RMK 1CU020 4CU040 6AC070 A2966
RJAA 231830Z 28004KT 9999 MIFG FEW030 BKN070 15/14 Q1003 NOSIG RMK 1CU030 5AC070 A2964
RJAA 231800Z 29003KT 9999 FEW030 BKN070 15/15 Q1003 NOSIG RMK 1CU030 5AC070 A2963
RJAA 231730Z 27003KT 9999 FEW030 SCT040 BKN070 15/15 Q1003 NOSIG RMK 1CU030 3CU040 7AC070 A2963
RJAA 231700Z VRB01KT 9999 FEW030 BKN070 16/15 Q1003 NOSIG RMK 1CU030 7AC070 A2962
RJAA 231630Z 27003KT 240V300 9999 VCSH FEW030 BKN035 BKN060 16/15 Q1002 NOSIG RMK 1CU030 6CU035 7AC060 A2961
RJAA 231600Z 31004KT 9999 VCSH FEW020 BKN030 BKN060 16/15 Q1002 NOSIG RMK 2CU020 5CU030 7AC060 A2960
RJAA 231530Z 32006KT 280V340 9999 -SHRA FEW020 BKN045 17/16 Q1002 NOSIG RMK 2CU020 7CU045 A2959
RJAA 231500Z 34003KT 300V030 9999 -SHRA FEW030 BKN035 17/16 Q1001 NOSIG RMK 1CU030 7CU035 A2958
RJAA 231430Z 35008KT 9999 -SHRA FEW025 BKN035 17/16 Q1001 NOSIG RMK 1CU025 7CU035 A2958
RJAA 231400Z 32003KT 290V350 9999 -SHRA FEW020 BKN030 17/17 Q1001 NOSIG RMK 1CU020 7CU030 A2957
RJAA 231330Z 32003KT 290V360 9999 -SHRA FEW005 BKN025 17/17 Q1001 NOSIG RMK 1ST005 7CU025 A2958
RJAA 231300Z 05004KT 360V080 9999 -SHRA FEW004 BKN020 17/17 Q1001 NOSIG RMK 1ST004 7CU020 A2957
RJAA 231239Z 01007KT 8000 -SHRA FEW002 SCT004 BKN015 17/17 Q1001 RMK 1ST002 3ST004 7CU015 A2956
RJAA 231216Z 01011KT 3500 -SHRA BR FEW002 BKN004 BKN010 17/17 Q1001 RMK 2ST002 5ST004 7CU010 A2956
RJAA 231200Z 32004KT 2500 -SHRA BR FEW001 SCT002 BKN003 18/18 Q1001 BECMG 4000 -SHRA BR FEW002 BKN008 RMK 1ST001 4ST002 6ST003 A2956
RJAA 231130Z VRB02KT 1400 R34L/1800U R34R/P2000N -SHRA BR FEW001 BKN002 18/18 Q1000 BECMG TL1300 3000 -SHRA BR RMK 2ST001 7ST002 A2956
RJAA 231114Z 30003KT 270V330 1400 R34L/1200V1800U R34R/P2000N VCSH BR SCT001 BKN002 18/18 Q1001 RMK 3ST001 7ST002 A2956
RJAA 231100Z 30003KT 260V340 1200 R34L/1300D R34R/P2000N BR SCT001 BKN002 18/18 Q1000 NOSIG
RJAA 231041Z 30003KT 1500 R34L/2000N R34R/P2000N BR SCT001 BKN002 18/18 Q1000 RMK 3ST001 7ST002 A2955
RJAA 231030Z 30003KT 1800 -SHRA BR SCT001 BKN002 18/18 Q1000 TEMPO 1500 -SHRA BR RMK 3ST001 7ST002 A2955
RJAA 231000Z 29005KT 1800 -SHRA BR SCT001 BKN002 18/18 Q1000 TEMPO 1500 -SHRA BR RMK 3ST001 7ST002 A2955
RJAA 230940Z 34005KT 300V030 3000 -SHRA BR FEW001 BKN002 18/18 Q1000 RMK 2ST001 7ST002 A2953
RJAA 230923Z 32004KT 280V020 3000 BR FEW001 BKN002 18/18 Q0999 RMK 2ST001 7ST002 A2952
RJAA 230912Z 29003KT 4500 BR FEW001 BKN002 18/18 Q1000 RMK 1ST001 7ST002 A2953
RJAA 230900Z 30003KT 250V340 7000 FEW001 BKN002 BKN003 18/18 Q0999 NOSIG RMK 1ST001 5ST002 7ST003 A2953
RJAA 230830Z 31003KT 9999 VCSH FEW001 BKN003 BKN010 18/18 Q0999 NOSIG RMK 1ST001 5ST003 6CU010 A2952
RJAA 230800Z 30003KT 4000 -SHRA BR FEW002 BKN003 BKN020 18/18 Q0999 NOSIG RMK 1ST002 5ST003 6CU020 A2952
RJAA 230730Z 35004KT 3500 SHRA BR FEW003 BKN004 BKN040 18/18 Q0999 NOSIG RMK 1ST003 5ST004 7CU040 A2952
RJAA 230717Z 36005KT 3500 SHRA BR FEW003 BKN022 18/18 Q0999 RMK 1ST003 7CU022 A2952
RJAA 230700Z 35006KT 8000 -SHRA FEW010 BKN020 18/18 Q0999 TEMPO 4000 -SHRA BR FEW003 BKN004
RJAA 230630Z 32008KT 8000 -SHRA FEW002 SCT004 BKN016 18/17 Q0999 TEMPO 4000 -SHRA BR FEW003 BKN004
RJAA 230619Z 32007KT 8000 -SHRA BKN003 BKN004 17/17 Q0999 RMK 5ST003 7ST004 A2951
RJAA 230600Z 32005KT 4500 -SHRA BR BKN003 BKN004 17/17 Q0999 NOSIG RMK 5ST003 7ST004 A2951
RJAA 230530Z 30008KT 260V340 3200 R34L/2000N R34R/P2000N -SHRA BR FEW002 BKN003 BKN004 18/17 Q0999 NOSIG
RJAA 230510Z 33008KT 3500 -SHRA BR BKN003 BKN004 18/18 Q0998 RMK 5ST003 7ST004 A2950
RJAA 230500Z 32006KT 5000 -SHRA BR SCT003 BKN004 18/18 Q0998 TEMPO 4000 -SHRA BR
RJAA 230430Z 33005KT 8000 -SHRA FEW003 BKN004 BKN006 19/18 Q0999 TEMPO 4000 -SHRA BR
RJAA 230419Z 32004KT 5000 -SHRA BR FEW003 BKN004 19/18 Q0999 RMK 2ST003 7ST004 A2951
RJAA 230400Z 32005KT 8000 -SHRA FEW002 BKN003 BKN006 19/18 Q0999 NOSIG RMK 1ST002 5ST003 7ST006 A2951
RJAA 230330Z 32006KT 8000 FEW003 BKN004 19/19 Q1000 NOSIG RMK 1ST003 7ST004 A2953
RJAA 230310Z 28004KT 170V320 5000 BR FEW003 SCT004 BKN006 20/19 Q1000 RMK 1ST003 3ST004 7ST006 A2956
RJAA 230300Z 22003KT 170V270 4000 -SHRA BR FEW003 SCT004 BKN006 21/21 Q1000 BECMG 25006KT TEMPO FEW002 BKN004 RMK 1ST003 4ST004 7ST006 A2956
RJAA 230230Z VRB02KT 7000 -SHRA FEW004 BKN006 21/20 Q1001 NOSIG RMK 1ST004 7ST006 A2957
RJAA 230200Z 11004KT 060V150 5000 BR SCT004 BKN006 20/20 Q1001 BECMG 36005KT RMK 4ST004 7ST006 A2959
RJAA 230142Z 10004KT 070V160 4000 BR FEW003 BKN004 20/20 Q1001 RMK 1ST003 7ST004 A2959
RJAA 230130Z 10003KT 060V170 3000 -SHRA BR FEW002 SCT003 BKN004 20/20 Q1002 BECMG 05005KT 4000 -SHRA BR RMK 1ST002 3ST003 7ST004 A2959
RJAA 230100Z VRB02KT 2700 BR FEW002 BKN004 19/19 Q1002 BECMG 05005KT 3500 BR RMK 1ST002 7ST004 A2961
RJAA 230030Z VRB03KT 2500 BR SCT002 BKN003 19/19 Q1003 BECMG 03005KT 3500 BR
RJAA 230000Z VRB02KT 2000 R16R/P2000N R16L/P2000N BR SCT001 BKN002 18/18 Q1004 BECMG 03005KT 3500 BR RMK 3ST001 7ST002 A2965
RJAA 222337Z VRB02KT 1500 R16R/2000N R16L/1600U BR SCT001 BKN002 18/18 Q1004 RMK 3ST001 7ST002 A2966
RJAA 222330Z 36003KT 1200 R16R/2000N R16L/0800V1700U BR SCT001 BKN002 18/18 Q1004 BECMG TL0000 2000 BR RMK 3ST001 7ST002 A2966
RJAA 222317Z 36003KT 0700 R16R/1800D R16L/0550V0900D FG SCT001 BKN002 18/18 Q1004 RMK 3ST001 7ST002 A2966
RJAA 222307Z VRB02KT 0500 R16R/1200VP2000N R16L/0800N FG FEW001 BKN002 18/18 Q1004 RMK 2ST001 7ST002 A2966
RJAA 222300Z VRB02KT 0500 R16R/0800VP2000U R16L/0500V0800U FG FEW001 BKN002 18/18 Q1004 BECMG TL0000 03005KT 2000 BR RMK 2ST001 7ST002 A2967
RJAA 222246Z 36002KT 0400 R16R/1100N R16L/0550N FG FEW000 SCT001 BKN002 18/18 Q1004 RMK 1ST000 3ST001 7ST002 A2967
RJAA 222239Z VRB02KT 0400 R16R/0900V1200U R16L/0500N FG FEW000 SCT001 BKN002 17/17 Q1005 RMK 1ST000 3ST001 7ST002 A2968
RJAA 222230Z VRB02KT 0400 R16R/0900V1300N R16L/0550N FG FEW000 BKN002 17/17 Q1005 BECMG 03005KT 2000 BR
RJAA 222216Z 02002KT 0300 R16R/0800U R16L/0550N FG FEW000 BKN002 17/17 Q1005 RMK 1ST000 7ST002 A2968
RJAA 222200Z 36004KT 0100 R16R/0700N R16L/0550N FG VV001 17/17 Q1005 BECMG 2000 BR FEW001 BKN002 RMK A2969
RJAA 222149Z 02003KT 0300 R16R/0750N R16L/0550N -SHRA FG FEW000 BKN002 17/17 Q1005 RMK 1ST000 7ST002 A2969
RJAA 222137Z 36003KT 320V040 0300 R16R/0800N R16L/0650N FG FEW000 SCT001 BKN002 17/17 Q1005 RMK 1ST000 3ST001 7ST002 A2969
RJAA 222126Z 35003KT 0400 R16R/0900V1200N R16L/0750N -SHRA FG FEW000 SCT001 BKN002 17/17 Q1005 RMK 1ST000 3ST001 7ST002 A2970
RJAA 222118Z 01004KT 330V040 0400 R16R/1200D R16L/0800V1000N -SHRA FG FEW000 SCT001 BKN002 17/17 Q1005 RMK 1ST000 3ST001 7ST002 A2970
RJAA 222100Z 35006KT 0400 R16R/1700D R16L/1200D FG FEW000 SCT001 BKN002 17/17 Q1005 BECMG FM2130 2000 BR
RJAA 222030Z 35007KT 0900 R16R/P2000N R16L/P2000N FG BKN001 BKN002 17/17 Q1006 BECMG FM2130 2000 -SHRA BR FEW001 BKN003
RJAA 222000Z 33006KT 0900 R16R/P2000N R16L/P2000N FG BKN001 BKN002 16/16 Q1007 NOSIG RMK 5ST001 7ST002 A2974
RJAA 221949Z 33006KT 1400 R16R/P2000N R16L/P2000N BR BKN001 BKN002 16/16 Q1007 RMK 5ST001 7ST002 A2974
RJAA 221930Z 34006KT 1800 BR FEW001 BKN002 BKN003 16/16 Q1007 NOSIG RMK 2ST001 5ST002 7ST003 A2974
RJAA 221906Z 32005KT 2800 -SHRA BR FEW001 BKN002 BKN003 16/16 Q1007 RMK 1ST001 5ST002 7ST003 A2976
RJAA 221830Z 32005KT 2800 BR FEW002 BKN003 16/16 Q1008 NOSIG RMK 1ST002 7ST003 A2977
RJAA 221800Z 33005KT 3000 BR FEW003 BKN004 16/16 Q1008 NOSIG RMK 1ST003 7ST004 A2978
RJAA 221730Z 33004KT 4000 -SHRA BR FEW004 BKN006 16/16 Q1009 TEMPO FEW003 BKN005
RJAA 221700Z 33007KT 5000 BR FEW003 BKN007 16/16 Q1009 TEMPO 4000 -SHRA BR
RJAA 221630Z 33006KT 6000 FEW003 SCT007 BKN050 16/16 Q1010 BECMG FEW003 BKN007
RJAA 221600Z 31005KT 280V340 6000 -SHRA FEW003 SCT025 BKN035 16/16 Q1010 NOSIG RMK 1ST003 3CU025 6CU035 A2985
RJAA 221547Z 32006KT 5000 -SHRA BR FEW008 SCT020 BKN035 16/16 Q1010 RMK 1ST008 3CU020 6CU035 A2985
RJAA 221530Z 31005KT 3500 SHRA BR FEW008 SCT020 BKN035 16/16 Q1011 BECMG 6000 NSW
RJAA 221522Z 32004KT 3500 SHRA BR FEW010 SCT020 BKN035 17/16 Q1011 RMK 1CU010 4CU020 6CU035 A2986
RJAA 221500Z 34003KT 310V010 4800 -SHRA BR FEW015 BKN040 BKN050 17/16 Q1011 NOSIG RMK 1CU015 5CU040 7SC050 A2987
RJAA 221430Z 32005KT 9999 -SHRA FEW020 BKN025 BKN050 17/16 Q1011 NOSIG RMK 1CU020 5CU025 7SC050 A2987 P/FR
RJAA 221400Z 31004KT 270V350 9999 -SHRA FEW020 BKN030 17/16 Q1012 NOSIG RMK 1CU020 7CU030 A2991
RJAA 221330Z 33006KT 9999 -SHRA FEW020 BKN030 BKN050 18/16 Q1012 NOSIG RMK 1CU020 5CU030 7SC050 A2991
RJAA 221300Z 34006KT 9999 -SHRA FEW025 SCT050 BKN150 18/16 Q1013 NOSIG RMK 1CU025 4SC050 7AC150 A2992
RJAA 221230Z 36006KT 9999 FEW025 SCT070 BKN180 18/16 Q1013 NOSIG RMK 1CU025 4AC070 7AC180 A2994
RJAA 221200Z 36006KT 9999 FEW025 BKN070 BKN180 17/16 Q1014 NOSIG RMK 1CU025 5AC070 7AC180 A2995
RJAA 221130Z 01005KT 9999 FEW025 SCT140 BKN170 17/16 Q1014 NOSIG RMK 1CU025 4AC140 7AC170 A2996
RJAA 221100Z 02005KT 9999 FEW025 BKN180 17/16 Q1015 NOSIG RMK 1CU025 7AC180 A2997 MOD TURB OBS AT 1053Z 25NM S NARITA BTN 9000FT AND 7000FT IN DES B788 JAL802
RJAA 221030Z 01005KT 9999 FEW025 BKN170 18/16 Q1015 NOSIG RMK 1CU025 7AC170 A2998
RJAA 221000Z 36007KT 9999 FEW025 BKN180 18/16 Q1015 NOSIG RMK 1CU025 5AC180 A2999
RJAA 220930Z 36006KT 9999 FEW030 SCT180 BKN/// 18/16 Q1015 NOSIG